createdAt,value
2023-08-26T00:00:47.694Z,66.75
2023-08-26T00:03:50.397Z,66.32
2023-08-26T00:06:52.721Z,66.03
2023-08-26T00:09:55.407Z,66.24
2023-08-26T00:12:57.820Z,66.17
2023-08-26T00:16:00.524Z,66.28
2023-08-26T00:19:03.462Z,67.53
2023-08-26T00:22:06.488Z,68.28
2023-08-26T00:25:10.494Z,69.17
2023-08-26T00:28:13.416Z,69.39
2023-08-26T00:31:16.874Z,69.00
2023-08-26T00:34:19.830Z,68.97
2023-08-26T00:37:22.204Z,69.23
2023-08-26T00:40:24.891Z,69.02
2023-08-26T00:43:29.001Z,68.71
2023-08-26T00:46:32.188Z,68.91
2023-08-26T00:49:35.784Z,68.67
2023-08-26T00:52:39.702Z,68.26
2023-08-26T00:55:43.345Z,68.34
2023-08-26T00:58:46.074Z,68.46
2023-08-26T01:01:50.546Z,68.55
2023-08-26T01:04:54.057Z,68.81
2023-08-26T01:07:57.799Z,68.78
2023-08-26T01:11:06.699Z,69.42
2023-08-26T01:14:46.128Z,70.24
2023-08-26T01:17:49.382Z,70.98
2023-08-26T01:20:53.382Z,70.27
2023-08-26T01:23:57.476Z,70.48
2023-08-26T01:27:00.283Z,70.84
2023-08-26T01:30:03.184Z,70.94
2023-08-26T01:33:16.863Z,71.06
2023-08-26T01:36:24.619Z,71.22
2023-08-26T01:39:29.288Z,71.60
2023-08-26T01:42:34.417Z,72.39
2023-08-26T01:45:36.810Z,72.74
2023-08-26T01:48:41.126Z,72.95
2023-08-26T01:51:45.754Z,72.94
2023-08-26T01:54:50.542Z,72.91
2023-08-26T01:57:53.693Z,73.15
2023-08-26T02:00:56.659Z,72.92
2023-08-26T02:03:59.459Z,72.75
2023-08-26T02:07:01.865Z,73.33
2023-08-26T02:10:04.952Z,72.98
2023-08-26T02:13:08.439Z,73.00
2023-08-26T02:16:11.285Z,73.30
2023-08-26T02:19:13.646Z,73.01
2023-08-26T02:22:17.560Z,73.38
2023-08-26T02:25:20.921Z,73.72
2023-08-26T02:28:23.420Z,73.36
2023-08-26T02:31:26.195Z,73.32
2023-08-26T02:34:28.603Z,72.78
2023-08-26T02:37:31.482Z,72.60
2023-08-26T02:40:33.884Z,72.50
2023-08-26T02:43:36.738Z,72.16
2023-08-26T02:46:39.137Z,72.48
2023-08-26T02:49:42.037Z,72.28
2023-08-26T02:52:44.513Z,72.67
2023-08-26T02:55:47.246Z,73.03
2023-08-26T02:58:49.655Z,73.37
2023-08-26T03:02:04.697Z,73.50
2023-08-26T03:05:08.697Z,73.57
2023-08-26T03:08:11.479Z,74.22
2023-08-26T03:11:14.475Z,74.67
2023-08-26T03:14:18.992Z,74.90
2023-08-26T03:17:21.506Z,75.06
2023-08-26T03:20:24.768Z,75.76
2023-08-26T03:23:27.264Z,76.01
2023-08-26T03:26:29.936Z,77.01
2023-08-26T03:29:32.377Z,77.76
2023-08-26T03:32:35.436Z,77.96
2023-08-26T03:35:39.804Z,79.24
2023-08-26T03:38:42.472Z,80.05
2023-08-26T03:41:44.947Z,80.43
2023-08-26T03:44:47.743Z,80.49
2023-08-26T03:47:50.630Z,80.35
2023-08-26T03:50:54.831Z,80.24
2023-08-26T03:53:57.812Z,80.45
2023-08-26T03:57:00.544Z,80.23
2023-08-26T04:00:03.624Z,80.41
2023-08-26T04:03:07.043Z,80.50
2023-08-26T04:06:10.523Z,80.19
2023-08-26T04:09:13.727Z,80.17
2023-08-26T04:12:16.419Z,79.82
2023-08-26T04:15:18.942Z,79.41
2023-08-26T04:18:22.284Z,79.25
2023-08-26T04:21:25.168Z,78.57
2023-08-26T04:24:28.873Z,78.35
2023-08-26T04:27:34.183Z,78.44
2023-08-26T04:30:40.336Z,78.61
2023-08-26T04:33:44.940Z,78.94
2023-08-26T04:36:47.879Z,79.05
2023-08-26T04:39:51.320Z,78.46
2023-08-26T04:42:56.883Z,78.11
2023-08-26T04:46:00.207Z,76.99
2023-08-26T04:49:03.782Z,76.53
2023-08-26T04:52:06.406Z,75.92
2023-08-26T04:55:09.731Z,75.68
2023-08-26T04:58:12.212Z,75.60
2023-08-26T05:01:15.352Z,75.36
2023-08-26T05:04:17.840Z,75.40
2023-08-26T05:07:21.460Z,75.12
2023-08-26T05:10:24.544Z,74.88
2023-08-26T05:13:27.338Z,74.66
2023-08-26T05:16:29.808Z,74.56
2023-08-26T05:19:32.524Z,74.30
2023-08-26T05:22:34.983Z,74.09
2023-08-26T05:25:37.752Z,73.61
2023-08-26T05:28:40.143Z,73.45
2023-08-26T05:31:42.918Z,72.87
2023-08-26T05:34:45.354Z,72.36
2023-08-26T05:37:48.202Z,71.61
2023-08-26T05:40:50.891Z,71.23
2023-08-26T05:43:53.581Z,70.96
2023-08-26T05:46:56.941Z,70.74
2023-08-26T05:50:00.062Z,70.82
2023-08-26T05:53:05.573Z,70.52
2023-08-26T05:56:10.771Z,69.17
2023-08-26T05:59:14.264Z,67.02
2023-08-26T06:02:17.017Z,65.91
2023-08-26T06:05:19.844Z,65.08
2023-08-26T06:08:23.815Z,64.60
2023-08-26T06:11:27.530Z,63.95
2023-08-26T06:14:30.180Z,63.42
2023-08-26T06:17:35.743Z,62.64
2023-08-26T06:20:38.246Z,62.24
2023-08-26T06:23:40.996Z,61.46
2023-08-26T06:26:45.075Z,59.86
2023-08-26T06:30:04.090Z,58.20
2023-08-26T06:33:06.781Z,57.75
2023-08-26T06:36:09.903Z,58.50
2023-08-26T06:39:12.935Z,58.33
2023-08-26T06:42:16.036Z,58.37
2023-08-26T06:45:20.190Z,58.10
2023-08-26T06:48:24.895Z,57.34
2023-08-26T06:51:27.387Z,57.24
2023-08-26T06:54:31.602Z,56.31
2023-08-26T06:57:35.284Z,55.91
2023-08-26T07:00:38.006Z,55.39
2023-08-26T07:03:40.514Z,54.97
2023-08-26T07:06:43.198Z,54.36
2023-08-26T07:09:45.620Z,53.97
2023-08-26T07:12:48.338Z,53.61
2023-08-26T07:15:50.753Z,53.19
2023-08-26T07:18:53.482Z,52.83
2023-08-26T07:21:55.922Z,52.37
2023-08-26T07:24:58.825Z,51.71
2023-08-26T07:28:01.372Z,52.31
2023-08-26T07:31:06.036Z,52.04
2023-08-26T07:34:09.386Z,51.61
2023-08-26T07:37:13.122Z,51.77
2023-08-26T07:40:17.163Z,51.14
2023-08-26T07:43:19.836Z,50.53
2023-08-26T07:49:29.741Z,50.13
2023-08-26T07:52:32.336Z,50.35
2023-08-26T07:55:35.079Z,50.38
2023-08-26T07:58:37.524Z,50.21
2023-08-26T08:01:40.216Z,50.29
2023-08-26T08:04:43.096Z,49.67
2023-08-26T08:07:45.600Z,49.03
2023-08-26T08:10:49.056Z,49.23
2023-08-26T08:13:52.578Z,48.39
2023-08-26T08:16:55.376Z,48.13
2023-08-26T08:19:58.004Z,47.63
2023-08-26T08:23:00.690Z,48.16
2023-08-26T08:26:03.207Z,46.51
2023-08-26T08:29:05.962Z,45.91
2023-08-26T08:32:08.408Z,45.74
2023-08-26T08:35:11.290Z,46.22
2023-08-26T08:38:13.699Z,45.82
2023-08-26T08:41:16.317Z,45.84
2023-08-26T08:44:22.851Z,45.56
2023-08-26T08:47:26.122Z,45.87
2023-08-26T08:50:32.004Z,45.80
2023-08-26T08:53:45.507Z,45.37
2023-08-26T08:56:48.248Z,45.12
2023-08-26T08:59:53.257Z,44.75
2023-08-26T09:02:59.224Z,44.58
2023-08-26T09:06:02.270Z,44.25
2023-08-26T09:09:19.224Z,44.68
2023-08-26T09:12:31.111Z,44.44
2023-08-26T09:15:33.974Z,43.61
2023-08-26T09:18:40.769Z,43.04
2023-08-26T09:21:43.980Z,43.62
2023-08-26T09:24:48.049Z,43.38
2023-08-26T09:27:50.435Z,43.27
2023-08-26T09:31:07.063Z,42.47
2023-08-26T09:34:09.581Z,42.48
2023-08-26T09:37:13.877Z,42.90
2023-08-26T09:40:18.092Z,42.53
2023-08-26T09:43:22.098Z,41.65
2023-08-26T09:46:24.611Z,41.72
2023-08-26T09:49:27.419Z,41.38
2023-08-26T09:52:29.852Z,41.85
2023-08-26T09:55:33.414Z,41.34
2023-08-26T09:58:35.841Z,40.79
2023-08-26T10:01:40.203Z,40.46
2023-08-26T10:04:45.836Z,40.55
2023-08-26T10:07:52.785Z,39.80
2023-08-26T10:10:56.768Z,40.17
2023-08-26T10:14:01.621Z,39.60
2023-08-26T10:17:08.694Z,38.85
2023-08-26T10:20:12.406Z,39.08
2023-08-26T10:23:15.393Z,38.19
2023-08-26T10:26:20.200Z,36.90
2023-08-26T10:29:23.080Z,36.70
2023-08-26T10:32:29.210Z,36.54
2023-08-26T10:35:32.150Z,36.69
2023-08-26T10:38:38.421Z,36.01
2023-08-26T10:41:41.229Z,35.76
2023-08-26T10:44:47.386Z,35.61
2023-08-26T10:47:56.491Z,35.68
2023-08-26T10:51:03.655Z,35.81
2023-08-26T10:54:06.605Z,35.61
2023-08-26T10:57:10.075Z,35.41
2023-08-26T11:00:13.635Z,35.72
2023-08-26T11:03:19.341Z,35.67
2023-08-26T11:06:23.619Z,35.48
2023-08-26T11:09:26.069Z,35.01
2023-08-26T11:12:30.274Z,34.50
2023-08-26T11:15:37.897Z,34.92
2023-08-26T11:18:40.630Z,34.72
2023-08-26T11:21:43.026Z,34.12
2023-08-26T11:24:49.904Z,33.84
2023-08-26T11:27:52.926Z,33.76
2023-08-26T11:30:56.161Z,33.42
2023-08-26T11:33:58.525Z,33.20
2023-08-26T11:37:01.402Z,33.05
2023-08-26T11:40:07.871Z,32.97
2023-08-26T11:43:12.793Z,33.30
2023-08-26T11:46:15.319Z,32.52
2023-08-26T11:49:18.142Z,32.74
2023-08-26T11:52:20.966Z,32.40
2023-08-26T11:55:24.293Z,32.27
2023-08-26T11:58:29.440Z,32.56
2023-08-26T12:01:32.832Z,32.20
2023-08-26T12:04:38.675Z,32.31
2023-08-26T12:07:45.797Z,32.17
2023-08-26T12:10:52.738Z,32.14
2023-08-26T12:13:55.210Z,31.93
2023-08-26T12:17:04.703Z,32.03
2023-08-26T12:20:26.359Z,32.12
2023-08-26T12:23:30.456Z,31.96
2023-08-26T12:26:32.803Z,31.89
2023-08-26T12:29:35.660Z,31.70
2023-08-26T12:32:38.301Z,32.02
2023-08-26T12:35:41.123Z,32.00
2023-08-26T12:38:43.501Z,31.84
2023-08-26T12:41:46.700Z,31.68
2023-08-26T12:44:50.008Z,31.38
2023-08-26T12:47:54.176Z,31.11
2023-08-26T12:50:56.616Z,31.58
2023-08-26T12:53:59.310Z,31.52
2023-08-26T12:57:01.756Z,31.36
2023-08-26T13:00:05.637Z,31.00
2023-08-26T13:03:08.099Z,30.87
2023-08-26T13:06:11.457Z,31.25
2023-08-26T13:09:13.895Z,30.97
2023-08-26T13:12:17.487Z,31.29
2023-08-26T13:15:19.888Z,31.47
2023-08-26T13:18:22.598Z,31.12
2023-08-26T13:21:25.493Z,31.18
2023-08-26T13:24:28.247Z,30.98
2023-08-26T13:27:31.392Z,30.71
2023-08-26T13:30:34.314Z,31.24
2023-08-26T13:33:36.922Z,31.29
2023-08-26T13:36:50.831Z,31.58
2023-08-26T13:39:53.946Z,31.67
2023-08-26T13:42:57.050Z,31.15
2023-08-26T13:45:59.711Z,31.17
2023-08-26T13:49:02.415Z,31.13
2023-08-26T13:52:05.104Z,31.60
2023-08-26T13:55:08.216Z,31.20
2023-08-26T13:58:10.655Z,31.55
2023-08-26T14:01:13.572Z,31.54
2023-08-26T14:04:16.283Z,31.49
2023-08-26T14:07:18.660Z,31.34
2023-08-26T14:10:21.342Z,31.15
2023-08-26T14:13:23.858Z,31.45
2023-08-26T14:16:28.417Z,31.60
2023-08-26T14:19:30.871Z,31.72
2023-08-26T14:22:33.627Z,31.58
2023-08-26T14:25:40.486Z,31.65
2023-08-26T14:28:43.109Z,31.58
2023-08-26T14:31:45.992Z,31.78
2023-08-26T14:34:48.765Z,32.12
2023-08-26T14:37:51.293Z,32.28
2023-08-26T14:40:54.512Z,31.92
2023-08-26T14:43:56.900Z,31.94
2023-08-26T14:46:59.634Z,31.98
2023-08-26T14:50:02.217Z,32.11
2023-08-26T14:53:07.447Z,31.78
2023-08-26T14:56:10.371Z,32.29
2023-08-26T14:59:13.006Z,32.38
2023-08-26T15:02:17.257Z,32.52
2023-08-26T15:05:20.155Z,32.72
2023-08-26T15:08:22.567Z,32.85
2023-08-26T15:11:25.321Z,32.37
2023-08-26T15:14:27.737Z,32.45
2023-08-26T15:17:30.576Z,32.43
2023-08-26T15:20:33.092Z,32.48
2023-08-26T15:23:35.967Z,32.79
2023-08-26T15:26:38.426Z,32.63
2023-08-26T15:29:41.129Z,33.03
2023-08-26T15:32:43.598Z,32.89
2023-08-26T15:35:53.608Z,33.17
2023-08-26T15:38:56.206Z,33.42
2023-08-26T15:41:59.688Z,33.76
2023-08-26T15:45:02.342Z,33.59
2023-08-26T15:48:05.474Z,33.53
2023-08-26T15:51:07.890Z,33.11
2023-08-26T15:54:10.578Z,33.15
2023-08-26T15:57:16.750Z,33.37
2023-08-26T16:00:19.456Z,33.53
2023-08-26T16:03:22.430Z,33.70
2023-08-26T16:06:25.357Z,33.62
2023-08-26T16:09:28.072Z,33.93
2023-08-26T16:12:30.512Z,34.70
2023-08-26T16:15:33.896Z,35.05
2023-08-26T16:18:39.976Z,35.01
2023-08-26T16:21:42.670Z,35.25
2023-08-26T16:24:45.221Z,35.14
2023-08-26T16:27:48.052Z,35.26
2023-08-26T16:30:50.419Z,35.45
2023-08-26T16:33:53.094Z,35.67
2023-08-26T16:36:55.520Z,36.01
2023-08-26T16:39:59.258Z,36.09
2023-08-26T16:43:01.871Z,36.15
2023-08-26T16:46:04.629Z,36.35
2023-08-26T16:49:07.143Z,36.44
2023-08-26T16:52:09.774Z,36.57
2023-08-26T16:55:12.094Z,36.87
2023-08-26T16:58:15.319Z,36.99
2023-08-26T17:01:19.074Z,37.13
2023-08-26T17:04:21.825Z,37.25
2023-08-26T17:07:24.312Z,37.61
2023-08-26T17:10:29.454Z,37.64
2023-08-26T17:13:32.271Z,38.01
2023-08-26T17:16:35.517Z,38.00
2023-08-26T17:19:37.945Z,38.18
2023-08-26T17:22:40.717Z,38.20
2023-08-26T17:25:44.139Z,38.46
2023-08-26T17:28:46.829Z,38.53
2023-08-26T17:31:49.286Z,38.44
2023-08-26T17:34:52.045Z,38.51
2023-08-26T17:37:54.461Z,38.54
2023-08-26T17:40:57.851Z,38.71
2023-08-26T17:44:00.239Z,38.60
2023-08-26T17:47:04.022Z,38.80
2023-08-26T17:50:07.338Z,38.83
2023-08-26T17:53:12.149Z,38.78
2023-08-26T17:56:14.838Z,38.83
2023-08-26T17:59:17.531Z,38.93
2023-08-26T18:02:19.915Z,39.06
2023-08-26T18:05:22.567Z,39.34
2023-08-26T18:08:25.185Z,39.53
2023-08-26T18:11:28.031Z,39.45
2023-08-26T18:14:30.408Z,39.63
2023-08-26T18:17:37.261Z,39.77
2023-08-26T18:20:39.837Z,39.94
2023-08-26T18:23:42.617Z,40.36
2023-08-26T18:26:45.042Z,40.51
2023-08-26T18:29:47.862Z,40.56
2023-08-26T18:32:50.464Z,40.67
2023-08-26T18:35:53.244Z,40.76
2023-08-26T18:38:55.675Z,40.96
2023-08-26T18:41:58.505Z,41.17
2023-08-26T18:45:01.198Z,41.08
2023-08-26T18:48:04.284Z,41.10
2023-08-26T18:51:06.898Z,41.20
2023-08-26T18:54:09.694Z,41.58
2023-08-26T18:57:12.256Z,41.21
2023-08-26T19:00:15.066Z,41.51
2023-08-26T19:03:17.664Z,41.61
2023-08-26T19:06:20.467Z,41.92
2023-08-26T19:09:22.976Z,41.55
2023-08-26T19:12:25.732Z,41.51
2023-08-26T19:15:28.111Z,41.79
2023-08-26T19:18:30.776Z,42.09
2023-08-26T19:21:33.206Z,42.39
2023-08-26T19:24:35.989Z,42.58
2023-08-26T19:27:38.370Z,42.73
2023-08-26T19:30:45.918Z,43.17
2023-08-26T19:33:48.394Z,43.93
2023-08-26T19:36:51.090Z,43.83
2023-08-26T19:39:53.465Z,43.57
2023-08-26T19:42:56.533Z,43.64
2023-08-26T19:45:59.195Z,43.74
2023-08-26T19:49:02.056Z,44.01
2023-08-26T19:52:04.684Z,43.98
2023-08-26T19:55:07.684Z,43.82
2023-08-26T19:58:11.157Z,43.39
2023-08-26T20:01:13.884Z,43.43
2023-08-26T20:04:16.685Z,43.66
2023-08-26T20:07:19.065Z,44.30
2023-08-26T20:10:21.715Z,44.27
2023-08-26T20:13:24.092Z,44.29
2023-08-26T20:16:26.913Z,44.25
2023-08-26T20:19:29.357Z,44.24
2023-08-26T20:22:31.960Z,44.17
2023-08-26T20:25:45.754Z,44.32
2023-08-26T20:28:50.340Z,44.38
2023-08-26T20:31:54.029Z,44.50
2023-08-26T20:34:56.973Z,44.66
2023-08-26T20:37:59.729Z,44.64
2023-08-26T20:41:04.914Z,44.73
2023-08-26T20:44:07.860Z,44.64
2023-08-26T20:47:11.429Z,44.47
2023-08-26T20:50:13.861Z,44.77
2023-08-26T20:53:16.572Z,44.94
2023-08-26T20:56:19.022Z,45.03
2023-08-26T20:59:22.050Z,45.15
2023-08-26T21:02:24.493Z,45.11
2023-08-26T21:05:29.862Z,45.23
2023-08-26T21:08:33.465Z,45.13
2023-08-26T21:11:36.075Z,45.42
2023-08-26T21:14:38.499Z,45.39
2023-08-26T21:17:41.760Z,45.98
2023-08-26T21:20:44.485Z,46.91
2023-08-26T21:23:48.808Z,47.31
2023-08-26T21:26:51.601Z,46.75
2023-08-26T21:29:54.354Z,46.53
2023-08-26T21:32:57.599Z,46.98
2023-08-26T21:36:02.651Z,46.88
2023-08-26T21:39:05.474Z,47.14
2023-08-26T21:42:08.255Z,47.16
2023-08-26T21:45:11.113Z,47.00
2023-08-26T21:48:13.988Z,46.87
2023-08-26T21:51:16.566Z,47.10
2023-08-26T21:54:19.304Z,46.73
2023-08-26T21:57:21.800Z,46.45
2023-08-26T22:00:25.032Z,46.55
2023-08-26T22:03:27.824Z,46.44
2023-08-26T22:06:30.350Z,46.39
2023-08-26T22:09:33.202Z,46.38
2023-08-26T22:12:35.599Z,46.31
2023-08-26T22:15:42.512Z,46.26
2023-08-26T22:18:45.108Z,46.19
2023-08-26T22:21:47.737Z,46.27
2023-08-26T22:24:50.421Z,46.28
2023-08-26T22:27:53.094Z,46.34
2023-08-26T22:30:57.235Z,46.02
2023-08-26T22:34:00.334Z,45.87
2023-08-26T22:37:02.768Z,45.85
2023-08-26T22:40:06.687Z,45.92
2023-08-26T22:43:09.161Z,45.98
2023-08-26T22:46:12.072Z,45.89
2023-08-26T22:49:14.542Z,46.42
2023-08-26T22:52:17.257Z,46.68
2023-08-26T22:55:19.757Z,46.85
2023-08-26T22:58:22.513Z,46.89
2023-08-26T23:01:25.033Z,46.91
2023-08-26T23:04:27.811Z,46.94
2023-08-26T23:07:30.390Z,46.94
2023-08-26T23:10:33.808Z,46.87
2023-08-26T23:13:36.167Z,46.97
2023-08-26T23:16:39.105Z,47.01
2023-08-26T23:19:41.462Z,47.06
2023-08-26T23:22:47.474Z,47.38
2023-08-26T23:25:49.965Z,47.50
2023-08-26T23:28:53.318Z,47.59
2023-08-26T23:31:55.883Z,47.75
2023-08-26T23:35:05.397Z,47.81
2023-08-26T23:38:07.874Z,47.72
2023-08-26T23:41:11.077Z,47.98
2023-08-26T23:44:13.556Z,48.00
2023-08-26T23:47:16.249Z,48.47
2023-08-26T23:50:21.684Z,48.77
2023-08-26T23:53:24.360Z,48.98
2023-08-26T23:56:26.682Z,48.91
2023-08-26T23:59:29.380Z,49.32
